Time;durP1;ratioP1;P1;durP2;ratioP2;P2;SDS_P1;SDS_P2;PMS_P1;PMS_P2;Temp;Humidity;BMP_temperature;BMP_pressure;BME280_temperature;BME280_humidity;BME280_pressure;Samples;Min_cycle;Max_cycle;Signal;HPM_P1;HPM_P2
2022/10/15 00:01:18;;;;;;;27.58;10.30;;;;;;;13.09;91.97;100845.94;5016366;28;121025;-31
2022/10/15 00:03:44;;;;;;;30.73;11.65;;;;;;;13.10;92.08;100853.09;5016535;28;99276;-31
2022/10/15 00:06:16;;;;;;;33.15;11.45;;;;;;;13.09;91.91;100847.78;5017405;28;96985;-31
2022/10/15 00:08:42;;;;;;;25.90;10.00;;;;;;;13.09;91.82;100850.50;5017111;28;97947;-31
2022/10/15 00:11:13;;;;;;;25.15;10.75;;;;;;;13.09;91.87;100845.94;5015576;28;100739;-30
2022/10/15 00:13:39;;;;;;;28.08;9.75;;;;;;;13.06;92.17;100839.81;5017352;28;96690;-30
2022/10/15 00:16:12;;;;;;;25.48;11.38;;;;;;;13.07;92.12;100842.44;5017000;28;96916;-31
2022/10/15 00:18:37;;;;;;;33.42;11.05;;;;;;;13.04;92.25;100844.50;5015363;28;100736;-30
2022/10/15 00:21:08;;;;;;;28.52;11.07;;;;;;;13.07;92.28;100847.03;5015696;28;100857;-30
2022/10/15 00:23:34;;;;;;;28.40;10.90;;;;;;;13.05;91.96;100847.13;5015729;28;96651;-31
2022/10/15 00:26:11;;;;;;;29.52;11.27;;;;;;;13.05;92.00;100838.97;5015682;28;96809;-30
2022/10/15 00:28:36;;;;;;;31.35;10.57;;;;;;;13.07;92.17;100845.16;5016017;28;97600;-32
2022/10/15 00:31:08;;;;;;;25.10;10.70;;;;;;;13.08;91.98;100844.16;5017297;28;97269;-31
2022/10/15 00:33:34;;;;;;;31.92;11.48;;;;;;;13.07;92.02;100838.88;5015593;28;96949;-31
2022/10/15 00:36:02;;;;;;;28.15;11.80;;;;;;;13.06;92.02;100843.44;5017020;28;96772;-32
2022/10/15 00:38:28;;;;;;;27.85;11.23;;;;;;;13.08;92.02;100844.16;5015080;28;100388;-30
2022/10/15 00:40:53;;;;;;;24.65;11.35;;;;;;;13.07;91.96;100839.72;5016284;28;99176;-31
2022/10/15 00:43:39;;;;;;;32.08;11.15;;;;;;;13.10;92.11;100835.91;5016548;28;98100;-30
2022/10/15 00:46:14;;;;;;;28.38;11.05;;;;;;;13.08;92.14;100829.72;5015063;28;96951;-31
2022/10/15 00:48:39;;;;;;;28.10;11.02;;;;;;;13.06;92.29;100834.38;5014914;28;100866;-32
2022/10/15 00:51:05;;;;;;;32.47;11.48;;;;;;;13.08;92.21;100833.28;5016357;28;97798;-31
2022/10/15 00:53:31;;;;;;;33.78;11.10;;;;;;;13.09;92.27;100840.50;5015399;28;96709;-31
2022/10/15 00:55:58;;;;;;;27.95;10.75;;;;;;;13.09;92.30;100834.19;5016418;28;96836;-30
2022/10/15 00:58:29;;;;;;;32.00;12.43;;;;;;;13.07;92.39;100826.13;5014727;28;100788;-30
2022/10/15 01:00:55;;;;;;;31.83;11.98;;;;;;;13.05;92.82;100816.34;5016458;28;97957;-30
2022/10/15 01:03:20;;;;;;;35.72;13.43;;;;;;;13.09;92.30;100821.44;5016653;28;96655;-30
2022/10/15 01:05:48;;;;;;;31.50;11.55;;;;;;;13.08;92.36;100816.13;5016494;28;96775;-31
2022/10/15 01:08:14;;;;;;;35.13;12.55;;;;;;;13.08;92.41;100818.84;5014368;28;99987;-31
2022/10/15 01:11:02;;;;;;;34.67;11.63;;;;;;;13.09;92.37;100815.16;5016409;28;99158;-30
2022/10/15 01:13:46;;;;;;;27.73;11.43;;;;;;;13.08;92.91;100816.97;5014959;28;96712;-30
2022/10/15 01:16:28;;;;;;;28.38;11.93;;;;;;;13.07;92.61;100814.38;5016140;28;96835;-31
2022/10/15 01:18:58;;;;;;;;;;;;;;;13.08;92.89;100813.41;5014510;28;100947;-31
2022/10/15 01:21:37;;;;;;;24.55;9.40;;;;;;;13.08;92.77;100807.97;5016345;28;97786;-30
2022/10/15 01:24:21;;;;;;;30.88;10.73;;;;;;;13.09;92.90;100801.56;5014831;28;96560;-32
2022/10/15 01:27:10;;;;;;;30.05;11.20;;;;;;;13.10;92.74;100801.41;5014686;28;96860;-31
2022/10/15 01:29:47;;;;;;;24.75;11.40;;;;;;;13.10;92.92;100801.41;5015712;28;99416;-30
2022/10/15 01:32:19;;;;;;;34.85;11.23;;;;;;;13.09;92.66;100794.25;5015647;28;99544;-31
2022/10/15 01:35:10;;;;;;;29.33;11.32;;;;;;;13.11;92.64;100792.31;5014525;28;96707;-31
2022/10/15 01:37:58;;;;;;;30.05;12.38;;;;;;;13.09;92.84;100791.53;5015236;28;96576;-31
2022/10/15 01:40:37;;;;;;;34.20;12.15;;;;;;;13.13;93.37;100784.00;5014909;28;97471;-30
2022/10/15 01:43:06;;;;;;;35.97;12.82;;;;;;;13.13;93.10;100789.44;5014267;28;101192;-31
2022/10/15 01:45:47;;;;;;;28.20;11.80;;;;;;;13.13;93.51;100792.16;5013991;28;96551;-31
2022/10/15 01:48:14;;;;;;;30.37;12.17;;;;;;;13.13;93.05;100792.16;5014530;28;96891;-30
2022/10/15 01:50:46;;;;;;;35.13;12.70;;;;;;;13.14;92.98;100791.22;5014124;28;101019;-30
2022/10/15 01:53:16;;;;;;;;;;;;;;;13.15;93.00;100788.34;5016100;28;97872;-31
2022/10/15 01:55:44;;;;;;;28.90;9.50;;;;;;;13.15;93.27;100785.63;5015717;28;96707;-32
2022/10/15 01:58:15;;;;;;;27.20;11.80;;;;;;;13.16;93.05;100781.94;5014021;28;96788;-30
2022/10/15 02:00:41;;;;;;;29.60;12.75;;;;;;;13.14;93.12;100783.91;5014018;28;100726;-32
2022/10/15 02:03:07;;;;;;;32.83;12.60;;;;;;;13.14;93.03;100774.88;5014231;28;100673;-31
2022/10/15 02:05:48;;;;;;;28.35;11.57;;;;;;;13.14;93.58;100774.88;5015276;28;96726;-32
2022/10/15 02:08:44;;;;;;;28.88;12.68;;;;;;;13.16;93.33;100772.94;5015742;28;96528;-31
2022/10/15 02:11:13;;;;;;;30.80;12.77;;;;;;;13.17;93.42;100766.50;5014780;28;97537;-30
2022/10/15 02:13:54;;;;;;;25.75;10.02;;;;;;;13.18;93.19;100765.53;5013612;28;101255;-30
2022/10/15 02:16:24;;;;;;;30.48;12.00;;;;;;;13.17;93.53;100764.63;5015798;28;96527;-31
2022/10/15 02:19:05;;;;;;;31.05;11.55;;;;;;;13.20;93.35;100765.38;5014040;28;96758;-31
2022/10/15 02:21:49;;;;;;;23.98;9.70;;;;;;;13.19;93.27;100759.09;5015222;28;97640;-31
2022/10/15 02:24:18;;;;;;;24.45;9.77;;;;;;;13.20;93.67;100751.78;5013617;28;101074;-32
2022/10/15 02:26:44;;;;;;;30.92;11.85;;;;;;;13.19;93.71;100742.78;5014897;28;96627;-31
2022/10/15 02:29:13;;;;;;;25.60;10.52;;;;;;;13.17;93.57;100728.41;5013969;28;96824;-31
2022/10/15 02:31:42;;;;;;;29.98;11.52;;;;;;;13.18;93.27;100731.03;5013265;28;100840;-30
2022/10/15 02:34:12;;;;;;;29.92;11.05;;;;;;;13.15;93.19;100723.06;5013432;28;100752;-31
2022/10/15 02:36:41;;;;;;;29.50;11.07;;;;;;;13.13;93.36;100725.06;5013093;28;96715;-31
2022/10/15 02:39:11;;;;;;;29.60;12.75;;;;;;;13.10;93.32;100713.53;5013605;28;96947;-30
2022/10/15 02:41:37;;;;;;;24.67;11.18;;;;;;;13.09;94.03;100714.53;5013248;28;100817;-30
2022/10/15 02:44:03;;;;;;;25.70;11.07;;;;;;;13.07;93.60;100711.06;5012876;28;101340;-31
2022/10/15 02:46:29;;;;;;;35.20;11.85;;;;;;;13.04;94.11;100706.72;5014363;28;96523;-33
2022/10/15 02:48:54;;;;;;;30.95;12.07;;;;;;;13.02;94.36;100705.09;5014958;28;96815;-31
2022/10/15 02:51:19;;;;;;;26.60;10.98;;;;;;;13.03;94.09;100710.41;5014589;28;99874;-30
2022/10/15 02:53:45;;;;;;;28.92;10.48;;;;;;;13.01;94.40;100706.91;5014812;28;104656;-30
2022/10/15 02:56:10;;;;;;;25.75;10.95;;;;;;;13.01;94.29;100717.78;5014737;28;96749;-31
2022/10/15 02:58:35;;;;;;;27.40;10.65;;;;;;;12.96;94.30;100704.53;5015017;28;96834;-32
2022/10/15 03:01:01;;;;;;;33.78;11.73;;;;;;;12.95;94.37;100693.78;5014164;28;97539;-32
2022/10/15 03:03:26;;;;;;;29.35;11.63;;;;;;;12.94;93.98;100697.47;5014305;28;99244;-30
2022/10/15 03:05:51;;;;;;;31.80;11.07;;;;;;;12.89;94.70;100700.53;5014312;28;100441;-32
2022/10/15 03:08:16;;;;;;;25.35;11.63;;;;;;;12.90;95.04;100690.56;5014562;28;96900;-31
2022/10/15 03:10:42;;;;;;;25.50;11.40;;;;;;;12.89;94.65;100688.81;5013901;28;112925;-30
2022/10/15 03:13:07;;;;;;;32.47;11.82;;;;;;;12.90;95.16;100691.41;5013610;28;108602;-30
2022/10/15 03:15:33;;;;;;;28.33;11.20;;;;;;;12.87;94.94;100688.03;5014057;28;96654;-30
2022/10/15 03:17:58;;;;;;;29.92;10.55;;;;;;;12.85;95.23;100696.31;5016700;28;96810;-32
2022/10/15 03:20:24;;;;;;;22.48;11.02;;;;;;;12.86;94.95;100697.19;5017360;28;111649;-31
2022/10/15 03:22:49;;;;;;;23.77;10.18;;;;;;;12.88;94.84;100701.53;5017929;28;97233;-29
2022/10/15 03:25:14;;;;;;;27.55;11.18;;;;;;;12.87;95.09;100696.19;5017070;28;104235;-31
2022/10/15 03:27:40;;;;;;;34.58;12.48;;;;;;;12.86;95.01;100686.31;5017727;28;96505;-32
2022/10/15 03:30:06;;;;;;;27.10;11.00;;;;;;;12.87;95.28;100699.81;5017201;28;103634;-31
2022/10/15 03:32:31;;;;;;;24.25;10.05;;;;;;;12.85;95.15;100696.31;5016204;28;100784;-30
2022/10/15 03:34:57;;;;;;;27.63;10.82;;;;;;;12.83;95.26;100692.00;5017979;28;96532;-31
2022/10/15 03:37:22;;;;;;;24.63;9.57;;;;;;;12.82;95.16;100695.66;5017251;28;108117;-30
2022/10/15 03:39:47;;;;;;;26.63;10.18;;;;;;;12.82;95.48;100696.53;5017689;28;98154;-31
2022/10/15 03:42:13;;;;;;;25.48;10.70;;;;;;;12.82;95.30;100699.25;5017959;28;97734;-31
2022/10/15 03:44:38;;;;;;;23.98;10.48;;;;;;;12.80;95.13;100695.81;5017558;28;96618;-31
2022/10/15 03:47:04;;;;;;;28.67;11.05;;;;;;;12.79;94.91;100702.19;5016896;28;96935;-33
2022/10/15 03:49:29;;;;;;;30.90;11.18;;;;;;;12.77;95.04;100708.72;5016826;28;97563;-30
2022/10/15 03:51:54;;;;;;;24.90;10.52;;;;;;;12.72;95.01;100715.38;5017130;28;105036;-31
2022/10/15 03:54:20;;;;;;;27.30;11.32;;;;;;;12.73;95.24;100718.97;5017795;28;96500;-30
2022/10/15 03:56:45;;;;;;;24.80;10.95;;;;;;;12.72;95.53;100723.50;5017420;28;96868;-31
2022/10/15 03:59:11;;;;;;;24.30;11.30;;;;;;;12.73;95.37;100718.97;5016825;28;99321;-30
2022/10/15 04:01:36;;;;;;;27.17;11.00;;;;;;;12.69;95.70;100718.31;5016867;28;101460;-31
2022/10/15 04:04:01;;;;;;;24.02;9.85;;;;;;;12.70;95.88;100730.03;5016881;28;107728;-30
2022/10/15 04:06:27;;;;;;;22.98;9.38;;;;;;;12.74;95.47;100732.44;5017831;28;99547;-30
2022/10/15 04:08:52;;;;;;;23.50;10.15;;;;;;;12.74;95.44;100726.13;5016685;28;98939;-31
2022/10/15 04:11:17;;;;;;;27.98;11.10;;;;;;;12.75;95.52;100736.91;5016354;28;114845;-30
2022/10/15 04:13:46;;;;;;;28.05;11.27;;;;;;;12.77;95.73;100735.91;5016296;28;103735;-31
2022/10/15 04:16:11;;;;;;;27.58;11.45;;;;;;;12.74;96.29;100724.28;5015880;28;96829;-30
2022/10/15 04:18:37;;;;;;;27.23;10.18;;;;;;;12.77;96.04;100719.59;5016395;28;116913;-31
2022/10/15 04:21:02;;;;;;;25.55;11.05;;;;;;;12.77;95.83;100720.47;5017057;28;97859;-29
2022/10/15 04:23:27;;;;;;;29.33;11.65;;;;;;;12.77;96.03;100719.59;5017212;28;97175;-30
2022/10/15 04:25:53;;;;;;;25.67;10.65;;;;;;;12.74;96.43;100721.56;5017178;28;96817;-30
2022/10/15 04:28:18;;;;;;;23.98;10.18;;;;;;;12.77;95.76;100722.31;5016168;28;99327;-30
2022/10/15 04:30:44;;;;;;;23.55;10.98;;;;;;;12.73;96.47;100717.13;5017124;28;97830;-30
2022/10/15 04:33:09;;;;;;;26.13;10.15;;;;;;;12.77;96.33;100715.03;5016670;28;101797;-32
2022/10/15 04:35:34;;;;;;;28.17;11.35;;;;;;;12.78;96.27;100718.66;5016270;28;103080;-30
2022/10/15 04:38:00;;;;;;;27.30;10.30;;;;;;;12.77;96.20;100715.03;5015969;28;99446;-31
2022/10/15 04:40:27;;;;;;;28.33;10.77;;;;;;;12.79;96.22;100709.50;5015017;28;100684;-31
2022/10/15 04:42:52;;;;;;;30.40;11.10;;;;;;;12.81;96.90;100715.69;5015078;28;96711;-30
2022/10/15 04:45:17;;;;;;;25.80;10.35;;;;;;;12.80;97.10;100708.50;5016512;28;96867;-31
2022/10/15 04:47:43;;;;;;;20.83;9.57;;;;;;;12.82;96.88;100703.81;5014707;28;101066;-30
2022/10/15 04:50:09;;;;;;;28.80;10.40;;;;;;;12.82;97.15;100704.69;5016419;28;97389;-30
2022/10/15 04:52:35;;;;;;;27.35;9.68;;;;;;;12.83;96.85;100711.88;5016842;28;96584;-30
2022/10/15 04:55:01;;;;;;;25.83;9.52;;;;;;;12.84;96.21;100699.16;5015681;28;96871;-32
2022/10/15 04:57:27;;;;;;;28.02;10.75;;;;;;;12.85;96.60;100695.47;5014644;28;99335;-30
2022/10/15 04:59:52;;;;;;;25.73;9.20;;;;;;;12.87;97.07;100698.91;5016413;28;97795;-31
2022/10/15 05:02:18;;;;;;;26.77;9.70;;;;;;;12.87;96.85;100709.78;5016465;28;97061;-30
2022/10/15 05:04:43;;;;;;;30.23;10.82;;;;;;;12.87;96.73;100693.47;5016619;28;96690;-30
2022/10/15 05:07:08;;;;;;;28.73;9.88;;;;;;;12.86;96.47;100700.78;5015702;28;108997;-31
2022/10/15 05:09:33;;;;;;;29.98;10.77;;;;;;;12.85;96.50;100692.75;5015797;28;98615;-31
2022/10/15 05:11:59;;;;;;;26.73;10.82;;;;;;;12.84;97.16;100697.28;5016165;28;96675;-31
2022/10/15 05:14:24;;;;;;;29.20;10.50;;;;;;;12.84;96.58;100699.16;5016147;28;96882;-31
2022/10/15 05:16:50;;;;;;;30.05;10.68;;;;;;;12.85;97.00;100701.75;5016179;28;97977;-31
2022/10/15 05:19:15;;;;;;;30.92;10.98;;;;;;;12.82;97.19;100693.81;5016450;28;97923;-32
2022/10/15 05:21:41;;;;;;;34.78;10.63;;;;;;;12.83;97.21;100697.44;5016275;28;96722;-29
2022/10/15 05:24:08;;;;;;;28.90;10.82;;;;;;;12.84;96.76;100696.44;5015982;28;96844;-31
2022/10/15 05:26:33;;;;;;;30.40;10.02;;;;;;;12.84;97.05;100699.16;5013795;28;100583;-31
2022/10/15 05:28:59;;;;;;;35.00;12.13;;;;;;;12.81;96.87;100699.38;5015934;28;97387;-31
2022/10/15 05:31:27;;;;;;;26.25;9.38;;;;;;;12.79;97.41;100695.91;5016000;28;96596;-30
2022/10/15 05:33:54;;;;;;;24.20;9.88;;;;;;;12.78;97.51;100683.31;5016028;28;96796;-31
2022/10/15 05:36:22;;;;;;;25.70;8.57;;;;;;;12.81;97.30;100685.78;5014306;28;101060;-30
2022/10/15 05:38:59;;;;;;;22.73;9.25;;;;;;;12.84;96.90;100680.13;5015601;28;99841;-31
2022/10/15 05:41:26;;;;;;;20.85;8.20;;;;;;;12.78;97.34;100672.44;5013812;28;96725;-31
2022/10/15 05:43:53;;;;;;;20.95;8.45;;;;;;;12.80;97.19;100681.31;5014410;28;96878;-32
2022/10/15 05:46:19;;;;;;;28.13;10.20;;;;;;;12.82;97.02;100673.94;5013395;28;101077;-30
2022/10/15 05:48:49;;;;;;;20.95;7.65;;;;;;;12.83;96.99;100681.97;5015330;28;99186;-31
2022/10/15 05:51:15;;;;;;;20.48;7.65;;;;;;;12.80;97.47;100678.59;5013956;28;96679;-32
2022/10/15 05:53:42;;;;;;;23.17;8.27;;;;;;;12.85;97.43;100690.03;5015626;28;96836;-30
2022/10/15 05:56:08;;;;;;;22.45;9.27;;;;;;;12.84;97.26;100680.13;5015272;28;99527;-30
2022/10/15 05:58:34;;;;;;;22.25;8.88;;;;;;;12.81;97.69;100678.50;5014074;28;99193;-31
2022/10/15 06:01:01;;;;;;;25.55;9.65;;;;;;;12.84;97.90;100682.84;5014199;28;96720;-31
2022/10/15 06:03:27;;;;;;;28.45;9.50;;;;;;;12.85;97.77;100680.03;5014130;28;96869;-32
2022/10/15 06:05:53;;;;;;;27.92;8.80;;;;;;;12.87;97.83;100686.22;5015304;28;98025;-32
2022/10/15 06:08:19;;;;;;;28.58;9.23;;;;;;;12.87;97.33;100678.06;5015255;28;98887;-31
2022/10/15 06:10:45;;;;;;;32.33;9.35;;;;;;;12.84;97.68;100672.81;5013996;28;96672;-30
2022/10/15 06:13:11;;;;;;;35.05;10.68;;;;;;;12.87;97.95;100672.63;5013972;28;96855;-31
2022/10/15 06:15:41;;;;;;;28.13;9.85;;;;;;;12.86;98.02;100676.31;5014543;28;97975;-32
2022/10/15 06:18:07;;;;;;;33.47;10.38;;;;;;;12.90;97.65;100672.38;5013625;28;100509;-30
2022/10/15 06:20:32;;;;;;;36.13;10.10;;;;;;;12.91;97.60;100681.41;5013728;28;96598;-31
2022/10/15 06:23:01;;;;;;;35.53;12.18;;;;;;;12.90;98.04;100668.81;5014077;28;114904;-31
2022/10/15 06:25:27;;;;;;;30.33;10.25;;;;;;;12.89;98.37;100673.34;5014302;28;99605;-32
2022/10/15 06:27:52;;;;;;;46.45;14.45;;;;;;;12.88;98.34;100668.91;5011702;28;101103;-31
2022/10/15 06:30:18;;;;;;;39.08;11.52;;;;;;;12.90;97.98;100669.66;5013633;28;96719;-31
2022/10/15 06:32:51;;;;;;;37.65;12.05;;;;;;;12.87;98.37;100664.47;5015509;28;96789;-31
2022/10/15 06:35:17;;;;;;;42.10;11.80;;;;;;;12.90;97.88;100669.66;5013062;28;101291;-30
2022/10/15 06:37:43;;;;;;;31.08;11.50;;;;;;;12.90;98.31;100666.09;5013273;28;100896;-30
2022/10/15 06:40:10;;;;;;;40.35;11.60;;;;;;;12.89;98.55;100665.19;5014384;28;96517;-31
2022/10/15 06:42:35;;;;;;;31.27;10.63;;;;;;;12.89;98.11;100670.63;5014839;28;96861;-32
2022/10/15 06:45:00;;;;;;;32.95;9.98;;;;;;;12.89;98.31;100664.34;5013853;28;116188;-31
2022/10/15 06:47:25;;;;;;;29.58;9.80;;;;;;;12.90;98.33;100671.53;5013891;28;103963;-30
2022/10/15 06:49:51;;;;;;;30.17;11.23;;;;;;;12.92;98.26;100677.72;5011850;28;101855;-32
2022/10/15 06:52:16;;;;;;;25.00;9.00;;;;;;;12.91;98.15;100670.53;5011335;28;101791;-31
2022/10/15 06:54:41;;;;;;;33.70;11.82;;;;;;;12.89;97.95;100676.06;5012475;28;102756;-31
2022/10/15 06:57:07;;;;;;;38.20;13.13;;;;;;;12.87;97.89;100674.44;5013194;28;97299;-31
2022/10/15 06:59:32;;;;;;;35.47;12.25;;;;;;;12.88;97.85;100678.91;5013677;28;96628;-31
2022/10/15 07:01:57;;;;;;;43.10;15.10;;;;;;;12.87;97.84;100682.59;5014191;28;97047;-34
2022/10/15 07:04:23;;;;;;;48.40;15.15;;;;;;;12.86;98.03;100691.75;5013605;28;98022;-30
2022/10/15 07:06:48;;;;;;;51.35;15.27;;;;;;;12.84;97.96;100691.84;5014131;28;99276;-32
2022/10/15 07:09:14;;;;;;;51.63;15.35;;;;;;;12.84;98.25;100683.69;5014690;28;96489;-30
2022/10/15 07:11:39;;;;;;;54.42;15.82;;;;;;;12.82;98.36;100679.34;5014640;28;96741;-30
2022/10/15 07:14:05;;;;;;;53.88;15.20;;;;;;;12.82;98.29;100679.34;5014146;28;100762;-30
2022/10/15 07:16:30;;;;;;;58.25;14.70;;;;;;;12.78;98.11;100669.72;5013835;28;114246;-31
2022/10/15 07:18:55;;;;;;;43.20;12.57;;;;;;;12.78;98.87;100683.31;5014582;28;96445;-30
2022/10/15 07:21:21;;;;;;;49.67;12.90;;;;;;;12.77;98.69;100668.81;5014781;28;96530;-30
2022/10/15 07:23:46;;;;;;;53.78;14.80;;;;;;;12.81;98.72;100672.19;5014269;28;97435;-30
2022/10/15 07:26:11;;;;;;;57.20;16.48;;;;;;;12.81;98.63;100667.63;5014092;28;97867;-30
2022/10/15 07:28:36;;;;;;;67.97;16.67;;;;;;;12.79;98.38;100663.28;5014096;28;96567;-32
2022/10/15 07:31:04;;;;;;;51.70;12.50;;;;;;;12.81;98.94;100674.91;5014045;28;101923;-33
2022/10/15 07:33:33;;;;;;;49.08;14.80;;;;;;;12.77;99.12;100665.25;5012577;28;101058;-34
2022/10/15 07:36:00;;;;;;;46.60;12.90;;;;;;;12.80;99.06;100656.84;5012548;28;100962;-31
2022/10/15 07:38:26;;;;;;;47.70;12.23;;;;;;;12.84;99.35;100661.09;5012849;28;96696;-31
2022/10/15 07:40:51;;;;;;;57.00;14.93;;;;;;;12.85;99.09;100658.28;5014389;28;96820;-30
2022/10/15 07:43:16;;;;;;;41.42;13.85;;;;;;;12.89;98.96;100661.63;5013753;28;104845;-31
2022/10/15 07:45:47;;;;;;;45.63;12.25;;;;;;;12.91;99.00;100649.63;5013578;28;122810;-32
2022/10/15 07:48:12;;;;;;;41.63;10.43;;;;;;;12.93;98.49;100653.13;5012272;28;96778;-31
2022/10/15 07:50:37;;;;;;;56.92;14.02;;;;;;;12.96;98.79;100649.31;5013794;28;99829;-33
2022/10/15 07:53:02;;;;;;;44.47;12.35;;;;;;;13.01;98.82;100648.97;5012619;28;124026;-31
2022/10/15 07:55:28;;;;;;;47.75;14.57;;;;;;;13.03;98.36;100644.28;5013742;28;98067;-31
2022/10/15 07:57:57;;;;;;;41.92;13.18;;;;;;;13.08;98.15;100639.34;5013970;28;96893;-30
2022/10/15 08:00:22;;;;;;;37.75;11.52;;;;;;;13.10;98.31;100632.81;5012699;28;96811;-30
2022/10/15 08:02:47;;;;;;;39.97;12.07;;;;;;;13.17;97.98;100639.53;5013404;28;99158;-31
2022/10/15 08:05:13;;;;;;;38.50;11.48;;;;;;;13.20;97.82;100629.41;5017309;28;97827;-31
2022/10/15 08:07:40;;;;;;;34.08;10.77;;;;;;;13.22;97.36;100632.88;5017501;28;96500;-31
2022/10/15 08:10:07;;;;;;;37.25;11.88;;;;;;;13.27;97.27;100634.28;5016105;28;96859;-30
2022/10/15 08:12:32;;;;;;;35.80;11.27;;;;;;;13.34;96.87;100631.97;5015607;28;101231;-31
2022/10/15 08:14:58;;;;;;;36.67;11.77;;;;;;;13.37;96.79;100627.16;5016690;28;98418;-32
2022/10/15 08:17:23;;;;;;;27.98;10.60;;;;;;;13.41;96.47;100637.81;5016619;28;96802;-30
2022/10/15 08:19:48;;;;;;;35.38;10.95;;;;;;;13.42;96.70;100626.81;5016927;28;96833;-30
2022/10/15 08:22:14;;;;;;;32.95;10.70;;;;;;;13.43;96.61;100619.53;5016616;28;99297;-30
2022/10/15 08:24:39;;;;;;;30.10;10.05;;;;;;;13.49;96.70;100619.91;5016906;28;97925;-31
2022/10/15 08:27:04;;;;;;;26.85;9.50;;;;;;;13.63;96.82;100613.38;5017198;28;96564;-30
2022/10/15 08:29:30;;;;;;;26.20;9.60;;;;;;;13.76;96.46;100611.44;5016722;28;97175;-30
2022/10/15 08:31:55;;;;;;;29.48;9.82;;;;;;;13.90;95.73;100610.34;5030105;28;99504;-30
2022/10/15 08:34:20;;;;;;;32.10;10.02;;;;;;;13.94;95.28;100611.84;5035459;28;101137;-31
2022/10/15 08:36:45;;;;;;;31.73;9.15;;;;;;;13.93;95.15;100612.81;5036712;28;100350;-31
2022/10/15 08:39:11;;;;;;;28.90;9.38;;;;;;;13.88;95.11;100606.88;5037022;27;96813;-30
2022/10/15 08:41:58;;;;;;;24.55;7.85;;;;;;;13.93;95.43;100603.78;5034834;27;119229;-30
2022/10/15 08:44:30;;;;;;;35.40;10.15;;;;;;;13.92;95.19;100597.47;5034854;28;101204;-31
2022/10/15 08:47:04;;;;;;;26.63;7.72;;;;;;;13.91;95.58;100598.44;5035881;28;96813;-31
2022/10/15 08:49:35;;;;;;;29.75;8.43;;;;;;;13.92;95.71;100604.75;5035534;28;96721;-30
2022/10/15 08:52:13;;;;;;;27.75;8.07;;;;;;;13.90;95.87;100606.75;5036328;27;97946;-30
2022/10/15 08:54:38;;;;;;;34.63;9.07;;;;;;;13.90;95.88;100604.91;5034331;28;101303;-31
2022/10/15 08:57:16;;;;;;;27.95;8.50;;;;;;;13.88;96.15;100616.91;5035785;27;96745;-31
2022/10/15 09:00:00;;;;;;;19.77;6.88;;;;;;;13.82;96.01;100631.84;5034325;28;97132;-30
2022/10/15 09:02:34;;;;;;;24.23;7.10;;;;;;;13.77;96.32;100631.34;5036574;27;97980;-31
2022/10/15 09:05:15;;;;;;;24.42;7.15;;;;;;;13.76;96.63;100622.31;5034905;28;101045;-30
2022/10/15 09:07:46;;;;;;;22.73;7.18;;;;;;;13.74;97.04;100593.50;5035891;28;96777;-31
2022/10/15 09:10:31;;;;;;;34.15;8.88;;;;;;;13.78;96.96;100603.16;5035210;28;96702;-30
2022/10/15 09:13:22;;;;;;;27.83;7.97;;;;;;;13.77;97.05;100599.53;5035298;28;98947;-31
2022/10/15 09:15:56;;;;;;;25.27;8.13;;;;;;;13.70;97.55;100601.00;5032828;27;99053;-30
2022/10/15 09:18:23;;;;;;;29.48;9.20;;;;;;;13.74;97.25;100601.66;5034563;28;96639;-33
2022/10/15 09:20:49;;;;;;;23.88;7.10;;;;;;;13.71;98.03;100607.34;5034448;28;96859;-31
2022/10/15 09:23:26;;;;;;;29.20;7.32;;;;;;;13.70;98.05;100587.41;5034711;28;100938;-29
2022/10/15 09:26:00;;;;;;;21.00;6.78;;;;;;;13.74;98.61;100596.22;5036663;27;97817;-30
2022/10/15 09:28:40;;;;;;;26.70;7.38;;;;;;;13.75;98.07;100584.31;5034827;28;96597;-30
2022/10/15 09:31:09;;;;;;;25.02;7.22;;;;;;;13.77;98.16;100585.94;5034787;28;96752;-30
2022/10/15 09:33:41;;;;;;;25.17;7.10;;;;;;;13.80;98.23;100580.28;5033994;28;99109;-30
2022/10/15 09:36:11;;;;;;;28.67;8.57;;;;;;;13.84;98.15;100580.00;5034465;28;100899;-30
2022/10/15 09:38:43;;;;;;;25.58;6.97;;;;;;;13.84;98.48;100580.00;5036330;28;96775;-30
2022/10/15 09:41:36;;;;;;;29.15;7.32;;;;;;;13.84;98.85;100575.44;5034861;28;96810;-30
2022/10/15 09:44:04;;;;;;;19.00;6.63;;;;;;;13.87;98.22;100577.03;5034179;28;100895;-32
2022/10/15 09:46:29;;;;;;;21.05;6.82;;;;;;;13.84;98.65;100578.16;5035138;28;98922;-31
2022/10/15 09:49:17;;;;;;;18.30;6.13;;;;;;;13.88;98.85;100582.38;5035836;27;96621;-30
2022/10/15 09:51:53;;;;;;;16.35;5.75;;;;;;;13.89;98.83;100580.50;5034854;28;96810;-30
2022/10/15 09:54:50;;;;;;;17.00;5.07;;;;;;;13.92;98.85;100572.09;5034256;28;100955;-30
2022/10/15 09:57:20;;;;;;;18.67;4.95;;;;;;;13.93;99.11;100566.53;5035579;27;97848;-31
2022/10/15 09:59:53;;;;;;;20.70;6.60;;;;;;;13.97;98.94;100567.16;5033851;28;96615;-30
2022/10/15 10:02:21;;;;;;;17.33;4.78;;;;;;;13.96;98.96;100557.25;5034452;28;96817;-31
2022/10/15 10:04:47;;;;;;;14.75;4.80;;;;;;;13.95;99.10;100571.88;5033956;28;100999;-30
2022/10/15 10:07:31;;;;;;;17.92;5.82;;;;;;;13.91;99.47;100563.06;5035448;27;99511;-30
2022/10/15 10:10:02;;;;;;;14.90;5.65;;;;;;;13.92;99.70;100562.09;5033916;28;97237;-30
2022/10/15 10:12:32;;;;;;;17.38;4.45;;;;;;;13.94;99.43;100565.56;5034286;28;96810;-29
2022/10/15 10:15:02;;;;;;;17.23;5.40;;;;;;;13.94;99.49;100568.28;5033517;28;100625;-30
2022/10/15 10:17:28;;;;;;;12.20;4.15;;;;;;;13.93;99.42;100574.69;5032709;28;103323;-30
2022/10/15 10:20:08;;;;;;;10.35;4.13;;;;;;;13.94;100.00;100567.38;5035165;27;96531;-32
2022/10/15 10:23:20;;;;;;;11.85;3.88;;;;;;;13.92;99.81;100562.09;5035166;27;96877;-30
2022/10/15 10:25:45;;;;;;;14.57;4.03;;;;;;;13.90;100.00;100555.91;5027944;27;97417;-30
2022/10/15 10:28:10;;;;;;;11.77;5.05;;;;;;;13.96;100.00;100569.00;5034495;27;97407;-31
2022/10/15 10:30:54;;;;;;;12.68;4.70;;;;;;;13.97;100.00;100565.31;5033574;28;96678;-30
2022/10/15 10:33:46;;;;;;;16.50;5.07;;;;;;;14.02;100.00;100570.38;5035650;28;96885;-30
2022/10/15 10:36:27;;;;;;;15.82;4.68;;;;;;;14.01;100.00;100566.78;5035060;27;97959;-31
2022/10/15 10:39:14;;;;;;;13.82;4.22;;;;;;;14.06;100.00;100569.13;5033096;28;100643;-30
2022/10/15 10:41:59;;;;;;;15.55;4.63;;;;;;;14.08;100.00;100572.59;5033549;28;96637;-29
2022/10/15 10:44:34;;;;;;;11.18;3.70;;;;;;;14.07;100.00;100554.53;5034693;28;96787;-29
2022/10/15 10:47:09;;;;;;;13.88;4.00;;;;;;;14.11;100.00;100564.19;5033539;27;98247;-31
2022/10/15 10:49:56;;;;;;;10.95;4.57;;;;;;;14.12;100.00;100559.59;5034723;27;97924;-30
2022/10/15 10:52:35;;;;;;;16.60;4.65;;;;;;;14.13;100.00;100553.16;5049679;27;96772;-30
2022/10/15 10:55:31;;;;;;;19.33;5.97;;;;;;;14.15;100.00;100552.03;5033338;28;96809;-30
2022/10/15 10:58:01;;;;;;;15.02;4.32;;;;;;;14.17;100.00;100549.19;5004360;28;99670;-32
2022/10/15 11:00:42;;;;;;;14.48;4.75;;;;;;;14.21;100.00;100556.13;5016914;28;101005;-31
2022/10/15 11:03:32;;;;;;;14.13;4.50;;;;;;;14.19;100.00;100544.50;5032885;28;96793;-30
2022/10/15 11:06:24;;;;;;;15.65;5.40;;;;;;;14.26;100.00;100547.59;5033179;28;96931;-30
2022/10/15 11:09:10;;;;;;;17.40;4.57;;;;;;;14.29;100.00;100540.00;5033003;28;100971;-30
2022/10/15 11:11:57;;;;;;;13.77;5.13;;;;;;;14.35;100.00;100541.34;5033098;28;100540;-30
2022/10/15 11:14:37;;;;;;;12.25;5.18;;;;;;;14.39;100.00;100542.84;5034376;27;96947;-30
2022/10/15 11:17:12;;;;;;;14.13;5.97;;;;;;;14.39;100.00;100537.38;5033096;28;96993;-30
2022/10/15 11:19:53;;;;;;;13.48;5.63;;;;;;;14.42;100.00;100548.06;5031782;28;101222;-30
2022/10/15 11:22:37;;;;;;;17.25;5.03;;;;;;;14.45;100.00;100545.94;5032890;28;100905;-30